sensor_id;sensor_type;location;lat;lon;timestamp;temperature;humidity
62464;SHT31;48512;48.552;9.380;2023-02-11T00:01:34;-1.89;78.50
62464;SHT31;48512;48.552;9.380;2023-02-11T00:04:00;-1.86;78.52
62464;SHT31;48512;48.552;9.380;2023-02-11T00:06:27;-1.79;78.36
62464;SHT31;48512;48.552;9.380;2023-02-11T00:08:54;-1.78;78.34
62464;SHT31;48512;48.552;9.380;2023-02-11T00:11:23;-1.79;78.17
62464;SHT31;48512;48.552;9.380;2023-02-11T00:13:56;-1.88;78.41
62464;SHT31;48512;48.552;9.380;2023-02-11T00:16:22;-1.98;78.63
62464;SHT31;48512;48.552;9.380;2023-02-11T00:18:53;-2.05;78.85
62464;SHT31;48512;48.552;9.380;2023-02-11T00:21:23;-2.17;79.20
62464;SHT31;48512;48.552;9.380;2023-02-11T00:23:49;-2.37;79.69
62464;SHT31;48512;48.552;9.380;2023-02-11T00:26:22;-2.36;79.65
62464;SHT31;48512;48.552;9.380;2023-02-11T00:28:51;-2.41;79.78
62464;SHT31;48512;48.552;9.380;2023-02-11T00:31:18;-2.44;79.91
62464;SHT31;48512;48.552;9.380;2023-02-11T00:33:44;-2.43;79.87
62464;SHT31;48512;48.552;9.380;2023-02-11T00:36:19;-2.54;80.27
62464;SHT31;48512;48.552;9.380;2023-02-11T00:38:48;-2.46;79.97
62464;SHT31;48512;48.552;9.380;2023-02-11T00:41:14;-2.50;80.29
62464;SHT31;48512;48.552;9.380;2023-02-11T00:43:40;-2.64;80.57
62464;SHT31;48512;48.552;9.380;2023-02-11T00:46:07;-2.72;80.84
62464;SHT31;48512;48.552;9.380;2023-02-11T00:48:37;-2.82;81.37
62464;SHT31;48512;48.552;9.380;2023-02-11T00:51:03;-2.76;81.37
62464;SHT31;48512;48.552;9.380;2023-02-11T00:53:31;-2.92;82.04
62464;SHT31;48512;48.552;9.380;2023-02-11T00:55:57;-2.92;82.06
62464;SHT31;48512;48.552;9.380;2023-02-11T00:58:23;-2.84;81.93
62464;SHT31;48512;48.552;9.380;2023-02-11T01:00:48;-2.86;81.85
62464;SHT31;48512;48.552;9.380;2023-02-11T01:03:16;-2.81;82.47
62464;SHT31;48512;48.552;9.380;2023-02-11T01:05:46;-2.69;81.49
62464;SHT31;48512;48.552;9.380;2023-02-11T01:08:11;-2.58;81.28
62464;SHT31;48512;48.552;9.380;2023-02-11T01:10:39;-2.64;81.29
62464;SHT31;48512;48.552;9.380;2023-02-11T01:13:05;-2.74;81.49
62464;SHT31;48512;48.552;9.380;2023-02-11T01:15:31;-2.69;81.59
62464;SHT31;48512;48.552;9.380;2023-02-11T01:17:56;-2.72;81.85
62464;SHT31;48512;48.552;9.380;2023-02-11T01:20:25;-2.65;81.58
62464;SHT31;48512;48.552;9.380;2023-02-11T01:22:51;-2.76;82.26
62464;SHT31;48512;48.552;9.380;2023-02-11T01:25:16;-2.74;82.54
62464;SHT31;48512;48.552;9.380;2023-02-11T01:27:42;-2.54;81.88
62464;SHT31;48512;48.552;9.380;2023-02-11T01:30:12;-2.68;82.46
62464;SHT31;48512;48.552;9.380;2023-02-11T01:32:38;-2.41;81.90
62464;SHT31;48512;48.552;9.380;2023-02-11T01:35:04;-2.51;81.93
62464;SHT31;48512;48.552;9.380;2023-02-11T01:37:34;-2.43;81.79
62464;SHT31;48512;48.552;9.380;2023-02-11T01:40:03;-2.25;81.12
62464;SHT31;48512;48.552;9.380;2023-02-11T01:42:32;-2.47;81.60
62464;SHT31;48512;48.552;9.380;2023-02-11T01:45:00;-2.50;81.56
62464;SHT31;48512;48.552;9.380;2023-02-11T01:47:26;-2.55;81.66
62464;SHT31;48512;48.552;9.380;2023-02-11T01:49:55;-2.61;81.89
62464;SHT31;48512;48.552;9.380;2023-02-11T01:54:55;-2.53;82.32
62464;SHT31;48512;48.552;9.380;2023-02-11T01:57:42;-2.40;81.85
62464;SHT31;48512;48.552;9.380;2023-02-11T02:00:13;-2.37;81.76
62464;SHT31;48512;48.552;9.380;2023-02-11T02:06:25;-2.41;81.77
62464;SHT31;48512;48.552;9.380;2023-02-11T02:08:25;-2.38;81.86
62464;SHT31;48512;48.552;9.380;2023-02-11T02:10:54;-2.33;81.66
62464;SHT31;48512;48.552;9.380;2023-02-11T02:13:23;-2.38;81.84
62464;SHT31;48512;48.552;9.380;2023-02-11T02:16:00;-2.23;81.53
62464;SHT31;48512;48.552;9.380;2023-02-11T02:28:03;-2.11;80.69
62464;SHT31;48512;48.552;9.380;2023-02-11T02:40:35;-1.90;79.56
62464;SHT31;48512;48.552;9.380;2023-02-11T02:43:03;-2.07;80.30
62464;SHT31;48512;48.552;9.380;2023-02-11T02:45:29;-2.14;80.41
62464;SHT31;48512;48.552;9.380;2023-02-11T02:47:57;-2.03;80.63
62464;SHT31;48512;48.552;9.380;2023-02-11T02:50:27;-2.00;79.77
62464;SHT31;48512;48.552;9.380;2023-02-11T02:53:05;-2.29;80.75
62464;SHT31;48512;48.552;9.380;2023-02-11T02:55:43;-2.44;81.45
62464;SHT31;48512;48.552;9.380;2023-02-11T03:01:06;-2.29;81.30
62464;SHT31;48512;48.552;9.380;2023-02-11T03:09:25;-2.41;81.46
62464;SHT31;48512;48.552;9.380;2023-02-11T03:11:52;-2.41;81.62
62464;SHT31;48512;48.552;9.380;2023-02-11T03:14:18;-2.46;81.91
62464;SHT31;48512;48.552;9.380;2023-02-11T03:16:45;-2.51;82.05
62464;SHT31;48512;48.552;9.380;2023-02-11T03:19:31;-2.48;82.37
62464;SHT31;48512;48.552;9.380;2023-02-11T03:22:02;-2.48;82.87
62464;SHT31;48512;48.552;9.380;2023-02-11T03:24:34;-2.51;83.06
62464;SHT31;48512;48.552;9.380;2023-02-11T03:27:08;-2.55;83.72
62464;SHT31;48512;48.552;9.380;2023-02-11T03:29:51;-2.38;83.96
62464;SHT31;48512;48.552;9.380;2023-02-11T03:32:34;-2.25;83.44
62464;SHT31;48512;48.552;9.380;2023-02-11T03:35:14;-2.09;83.16
62464;SHT31;48512;48.552;9.380;2023-02-11T03:37:51;-2.05;82.98
62464;SHT31;48512;48.552;9.380;2023-02-11T03:40:24;-2.03;83.00
62464;SHT31;48512;48.552;9.380;2023-02-11T03:42:55;-1.86;82.42
62464;SHT31;48512;48.552;9.380;2023-02-11T03:45:24;-1.72;82.17
62464;SHT31;48512;48.552;9.380;2023-02-11T03:47:55;-1.62;81.98
62464;SHT31;48512;48.552;9.380;2023-02-11T03:50:25;-1.54;81.92
62464;SHT31;48512;48.552;9.380;2023-02-11T03:52:52;-1.55;81.75
62464;SHT31;48512;48.552;9.380;2023-02-11T03:55:19;-1.46;81.80
62464;SHT31;48512;48.552;9.380;2023-02-11T03:57:46;-1.52;81.81
62464;SHT31;48512;48.552;9.380;2023-02-11T04:00:13;-1.43;81.89
62464;SHT31;48512;48.552;9.380;2023-02-11T04:02:40;-1.47;81.85
62464;SHT31;48512;48.552;9.380;2023-02-11T04:05:06;-1.48;82.30
62464;SHT31;48512;48.552;9.380;2023-02-11T04:07:32;-1.46;82.28
62464;SHT31;48512;48.552;9.380;2023-02-11T04:09:58;-1.51;83.09
62464;SHT31;48512;48.552;9.380;2023-02-11T04:12:23;-1.58;83.20
62464;SHT31;48512;48.552;9.380;2023-02-11T04:14:51;-1.54;83.20
62464;SHT31;48512;48.552;9.380;2023-02-11T04:17:17;-1.46;83.20
62464;SHT31;48512;48.552;9.380;2023-02-11T04:19:42;-1.43;83.48
62464;SHT31;48512;48.552;9.380;2023-02-11T04:22:08;-1.34;83.51
62464;SHT31;48512;48.552;9.380;2023-02-11T04:24:33;-1.31;83.89
62464;SHT31;48512;48.552;9.380;2023-02-11T04:26:59;-1.29;84.28
62464;SHT31;48512;48.552;9.380;2023-02-11T04:29:24;-1.21;84.26
62464;SHT31;48512;48.552;9.380;2023-02-11T04:31:53;-1.09;83.98
62464;SHT31;48512;48.552;9.380;2023-02-11T04:34:18;-1.04;83.89
62464;SHT31;48512;48.552;9.380;2023-02-11T04:36:46;-0.96;83.51
62464;SHT31;48512;48.552;9.380;2023-02-11T04:39:14;-0.93;83.68
62464;SHT31;48512;48.552;9.380;2023-02-11T04:41:39;-0.83;83.34
62464;SHT31;48512;48.552;9.380;2023-02-11T04:44:04;-0.74;83.16
62464;SHT31;48512;48.552;9.380;2023-02-11T04:46:30;-0.76;83.23
62464;SHT31;48512;48.552;9.380;2023-02-11T04:48:58;-0.72;83.31
62464;SHT31;48512;48.552;9.380;2023-02-11T04:51:26;-0.69;83.30
62464;SHT31;48512;48.552;9.380;2023-02-11T04:53:51;-0.66;83.21
62464;SHT31;48512;48.552;9.380;2023-02-11T04:56:16;-0.61;83.08
62464;SHT31;48512;48.552;9.380;2023-02-11T04:58:42;-0.55;82.95
62464;SHT31;48512;48.552;9.380;2023-02-11T05:01:09;-0.50;82.73
62464;SHT31;48512;48.552;9.380;2023-02-11T05:03:35;-0.48;82.47
62464;SHT31;48512;48.552;9.380;2023-02-11T05:06:01;-0.37;82.30
62464;SHT31;48512;48.552;9.380;2023-02-11T05:08:26;-0.37;82.08
62464;SHT31;48512;48.552;9.380;2023-02-11T05:10:52;-0.34;81.93
62464;SHT31;48512;48.552;9.380;2023-02-11T05:13:17;-0.38;81.36
62464;SHT31;48512;48.552;9.380;2023-02-11T05:15:43;-0.34;81.24
62464;SHT31;48512;48.552;9.380;2023-02-11T05:18:08;-0.34;81.05
62464;SHT31;48512;48.552;9.380;2023-02-11T05:20:37;-0.30;80.77
62464;SHT31;48512;48.552;9.380;2023-02-11T05:23:04;-0.30;80.59
62464;SHT31;48512;48.552;9.380;2023-02-11T05:25:30;-0.30;80.53
62464;SHT31;48512;48.552;9.380;2023-02-11T05:27:57;-0.28;80.29
62464;SHT31;48512;48.552;9.380;2023-02-11T05:30:26;-0.20;79.99
62464;SHT31;48512;48.552;9.380;2023-02-11T05:32:51;-0.18;80.01
62464;SHT31;48512;48.552;9.380;2023-02-11T05:35:16;-0.20;80.09
62464;SHT31;48512;48.552;9.380;2023-02-11T05:37:42;-0.20;79.99
62464;SHT31;48512;48.552;9.380;2023-02-11T05:40:08;-0.16;79.15
62464;SHT31;48512;48.552;9.380;2023-02-11T05:42:33;-0.23;78.21
62464;SHT31;48512;48.552;9.380;2023-02-11T05:44:58;-0.36;78.26
62464;SHT31;48512;48.552;9.380;2023-02-11T05:47:26;-0.42;78.71
62464;SHT31;48512;48.552;9.380;2023-02-11T05:49:52;-0.40;79.20
62464;SHT31;48512;48.552;9.380;2023-02-11T05:52:20;-0.40;79.87
62464;SHT31;48512;48.552;9.380;2023-02-11T05:54:45;-0.37;80.43
62464;SHT31;48512;48.552;9.380;2023-02-11T05:57:15;-0.41;81.38
62464;SHT31;48512;48.552;9.380;2023-02-11T05:59:40;-0.40;81.65
62464;SHT31;48512;48.552;9.380;2023-02-11T06:02:08;-0.38;81.82
62464;SHT31;48512;48.552;9.380;2023-02-11T06:04:34;-0.42;82.24
62464;SHT31;48512;48.552;9.380;2023-02-11T06:07:00;-0.38;82.38
62464;SHT31;48512;48.552;9.380;2023-02-11T06:09:28;-0.28;82.72
62464;SHT31;48512;48.552;9.380;2023-02-11T06:11:53;-0.20;82.92
62464;SHT31;48512;48.552;9.380;2023-02-11T06:14:19;-0.23;83.36
62464;SHT31;48512;48.552;9.380;2023-02-11T06:16:44;-0.16;83.37
62464;SHT31;48512;48.552;9.380;2023-02-11T06:19:10;-0.10;83.33
62464;SHT31;48512;48.552;9.380;2023-02-11T06:21:36;-0.02;83.37
62464;SHT31;48512;48.552;9.380;2023-02-11T06:24:01;0.00;83.61
62464;SHT31;48512;48.552;9.380;2023-02-11T06:26:26;0.03;83.61
62464;SHT31;48512;48.552;9.380;2023-02-11T06:28:52;0.11;83.43
62464;SHT31;48512;48.552;9.380;2023-02-11T06:31:17;0.21;83.17
62464;SHT31;48512;48.552;9.380;2023-02-11T06:33:43;0.26;83.02
62464;SHT31;48512;48.552;9.380;2023-02-11T06:36:14;0.35;80.91
62464;SHT31;48512;48.552;9.380;2023-02-11T06:38:40;0.39;79.77
62464;SHT31;48512;48.552;9.380;2023-02-11T06:41:07;0.35;79.60
62464;SHT31;48512;48.552;9.380;2023-02-11T06:43:32;0.32;78.91
62464;SHT31;48512;48.552;9.380;2023-02-11T06:45:58;0.32;77.93
62464;SHT31;48512;48.552;9.380;2023-02-11T06:48:25;0.29;78.03
62464;SHT31;48512;48.552;9.380;2023-02-11T06:50:51;0.32;77.62
62464;SHT31;48512;48.552;9.380;2023-02-11T06:53:19;0.33;77.48
62464;SHT31;48512;48.552;9.380;2023-02-11T06:55:44;0.31;77.55
62464;SHT31;48512;48.552;9.380;2023-02-11T06:58:10;0.32;77.42
62464;SHT31;48512;48.552;9.380;2023-02-11T07:00:38;0.37;77.25
62464;SHT31;48512;48.552;9.380;2023-02-11T07:03:03;0.46;78.53
62464;SHT31;48512;48.552;9.380;2023-02-11T07:05:29;0.46;78.12
62464;SHT31;48512;48.552;9.380;2023-02-11T07:07:54;0.42;77.17
62464;SHT31;48512;48.552;9.380;2023-02-11T07:10:20;0.42;76.89
62464;SHT31;48512;48.552;9.380;2023-02-11T07:12:45;0.45;75.81
62464;SHT31;48512;48.552;9.380;2023-02-11T07:15:11;0.39;75.92
62464;SHT31;48512;48.552;9.380;2023-02-11T07:17:36;0.37;75.98
62464;SHT31;48512;48.552;9.380;2023-02-11T07:20:02;0.35;76.12
62464;SHT31;48512;48.552;9.380;2023-02-11T07:22:28;0.37;75.93
62464;SHT31;48512;48.552;9.380;2023-02-11T07:24:53;0.44;76.11
62464;SHT31;48512;48.552;9.380;2023-02-11T07:27:21;0.46;76.12
62464;SHT31;48512;48.552;9.380;2023-02-11T07:29:46;0.49;75.73
62464;SHT31;48512;48.552;9.380;2023-02-11T07:32:12;0.53;75.56
62464;SHT31;48512;48.552;9.380;2023-02-11T07:34:38;0.58;75.45
62464;SHT31;48512;48.552;9.380;2023-02-11T07:37:06;0.60;75.24
62464;SHT31;48512;48.552;9.380;2023-02-11T07:39:31;0.60;75.17
62464;SHT31;48512;48.552;9.380;2023-02-11T07:41:56;0.66;75.00
62464;SHT31;48512;48.552;9.380;2023-02-11T07:44:22;0.75;74.98
62464;SHT31;48512;48.552;9.380;2023-02-11T07:46:47;0.73;75.59
62464;SHT31;48512;48.552;9.380;2023-02-11T07:49:14;0.66;76.37
62464;SHT31;48512;48.552;9.380;2023-02-11T07:51:39;0.79;76.27
62464;SHT31;48512;48.552;9.380;2023-02-11T07:54:05;0.79;76.34
62464;SHT31;48512;48.552;9.380;2023-02-11T07:56:31;0.83;76.31
62464;SHT31;48512;48.552;9.380;2023-02-11T07:59:01;0.90;76.17
62464;SHT31;48512;48.552;9.380;2023-02-11T08:01:28;1.05;76.01
62464;SHT31;48512;48.552;9.380;2023-02-11T08:03:55;1.16;75.97
62464;SHT31;48512;48.552;9.380;2023-02-11T08:06:22;1.16;75.71
62464;SHT31;48512;48.552;9.380;2023-02-11T08:08:48;1.28;75.35
62464;SHT31;48512;48.552;9.380;2023-02-11T08:11:22;1.32;75.20
62464;SHT31;48512;48.552;9.380;2023-02-11T08:13:50;1.31;74.93
62464;SHT31;48512;48.552;9.380;2023-02-11T08:16:29;1.39;74.82
62464;SHT31;48512;48.552;9.380;2023-02-11T08:18:57;1.45;74.53
62464;SHT31;48512;48.552;9.380;2023-02-11T08:21:23;1.54;73.73
62464;SHT31;48512;48.552;9.380;2023-02-11T08:23:48;2.20;78.56
62464;SHT31;48512;48.552;9.380;2023-02-11T08:26:18;2.46;76.13
62464;SHT31;48512;48.552;9.380;2023-02-11T08:28:46;2.45;74.26
62464;SHT31;48512;48.552;9.380;2023-02-11T08:31:26;2.48;72.80
62464;SHT31;48512;48.552;9.380;2023-02-11T08:33:52;2.68;71.98
62464;SHT31;48512;48.552;9.380;2023-02-11T08:36:25;3.90;83.91
62464;SHT31;48512;48.552;9.380;2023-02-11T08:38:53;4.71;78.01
62464;SHT31;48512;48.552;9.380;2023-02-11T08:41:19;4.61;73.44
62464;SHT31;48512;48.552;9.380;2023-02-11T08:43:45;4.27;70.87
62464;SHT31;48512;48.552;9.380;2023-02-11T08:46:13;4.00;70.32
62464;SHT31;48512;48.552;9.380;2023-02-11T08:48:38;3.76;70.30
62464;SHT31;48512;48.552;9.380;2023-02-11T08:51:09;3.61;71.02
62464;SHT31;48512;48.552;9.380;2023-02-11T08:53:35;3.54;71.44
62464;SHT31;48512;48.552;9.380;2023-02-11T08:56:01;3.48;71.91
62464;SHT31;48512;48.552;9.380;2023-02-11T08:58:27;3.44;72.39
62464;SHT31;48512;48.552;9.380;2023-02-11T09:00:52;3.38;72.62
62464;SHT31;48512;48.552;9.380;2023-02-11T09:03:17;3.47;72.52
62464;SHT31;48512;48.552;9.380;2023-02-11T09:05:45;3.42;72.80
62464;SHT31;48512;48.552;9.380;2023-02-11T09:08:11;3.71;72.44
62464;SHT31;48512;48.552;9.380;2023-02-11T09:10:37;3.92;71.79
62464;SHT31;48512;48.552;9.380;2023-02-11T09:13:03;5.24;79.62
62464;SHT31;48512;48.552;9.380;2023-02-11T09:15:31;6.60;74.45
62464;SHT31;48512;48.552;9.380;2023-02-11T09:17:57;6.48;72.09
62464;SHT31;48512;48.552;9.380;2023-02-11T09:20:23;6.43;68.32
62464;SHT31;48512;48.552;9.380;2023-02-11T09:22:49;6.24;66.47
62464;SHT31;48512;48.552;9.380;2023-02-11T09:25:17;6.22;65.98
62464;SHT31;48512;48.552;9.380;2023-02-11T09:27:42;5.98;66.51
62464;SHT31;48512;48.552;9.380;2023-02-11T09:30:08;6.17;65.48
62464;SHT31;48512;48.552;9.380;2023-02-11T09:32:34;6.41;64.58
62464;SHT31;48512;48.552;9.380;2023-02-11T09:34:59;6.40;64.89
62464;SHT31;48512;48.552;9.380;2023-02-11T09:37:25;6.57;63.60
62464;SHT31;48512;48.552;9.380;2023-02-11T09:39:50;6.77;63.90
62464;SHT31;48512;48.552;9.380;2023-02-11T09:45:18;7.15;62.45
62464;SHT31;48512;48.552;9.380;2023-02-11T09:47:55;7.37;62.36
62464;SHT31;48512;48.552;9.380;2023-02-11T09:50:34;7.51;61.73
62464;SHT31;48512;48.552;9.380;2023-02-11T09:55:35;7.06;63.97
62464;SHT31;48512;48.552;9.380;2023-02-11T09:58:09;7.58;62.16
62464;SHT31;48512;48.552;9.380;2023-02-11T10:14:52;8.85;57.04
62464;SHT31;48512;48.552;9.380;2023-02-11T10:20:37;9.25;56.01
62464;SHT31;48512;48.552;9.380;2023-02-11T10:23:23;9.05;57.13
62464;SHT31;48512;48.552;9.380;2023-02-11T10:25:54;8.97;56.49
62464;SHT31;48512;48.552;9.380;2023-02-11T10:28:30;8.61;57.33
62464;SHT31;48512;48.552;9.380;2023-02-11T10:31:13;8.59;57.80
62464;SHT31;48512;48.552;9.380;2023-02-11T10:36:11;8.68;58.16
62464;SHT31;48512;48.552;9.380;2023-02-11T10:38:37;8.68;58.39
62464;SHT31;48512;48.552;9.380;2023-02-11T10:41:03;8.74;58.49
62464;SHT31;48512;48.552;9.380;2023-02-11T10:43:31;8.87;58.17
62464;SHT31;48512;48.552;9.380;2023-02-11T10:46:01;9.05;58.02
62464;SHT31;48512;48.552;9.380;2023-02-11T10:48:47;9.30;57.65
62464;SHT31;48512;48.552;9.380;2023-02-11T10:51:23;9.40;57.55
62464;SHT31;48512;48.552;9.380;2023-02-11T10:54:10;9.30;57.81
62464;SHT31;48512;48.552;9.380;2023-02-11T10:56:47;9.70;56.32
62464;SHT31;48512;48.552;9.380;2023-02-11T11:01:52;10.87;52.62
62464;SHT31;48512;48.552;9.380;2023-02-11T11:07:20;11.28;50.27
62464;SHT31;48512;48.552;9.380;2023-02-11T11:15:26;12.11;48.59
62464;SHT31;48512;48.552;9.380;2023-02-11T11:18:16;12.28;47.83
62464;SHT31;48512;48.552;9.380;2023-02-11T11:20:55;12.31;48.22
62464;SHT31;48512;48.552;9.380;2023-02-11T11:23:23;12.83;47.34
62464;SHT31;48512;48.552;9.380;2023-02-11T11:26:11;13.07;46.21
62464;SHT31;48512;48.552;9.380;2023-02-11T11:28:40;13.28;45.57
62464;SHT31;48512;48.552;9.380;2023-02-11T11:31:45;13.53;44.65
62464;SHT31;48512;48.552;9.380;2023-02-11T11:34:16;13.79;44.84
62464;SHT31;48512;48.552;9.380;2023-02-11T11:36:44;14.05;44.50
62464;SHT31;48512;48.552;9.380;2023-02-11T11:39:23;14.37;43.41
62464;SHT31;48512;48.552;9.380;2023-02-11T11:41:55;14.50;43.04
62464;SHT31;48512;48.552;9.380;2023-02-11T11:49:46;15.22;42.69
62464;SHT31;48512;48.552;9.380;2023-02-11T11:54:56;15.30;41.98
62464;SHT31;48512;48.552;9.380;2023-02-11T11:57:25;15.88;41.32
62464;SHT31;48512;48.552;9.380;2023-02-11T11:59:52;16.02;41.11
62464;SHT31;48512;48.552;9.380;2023-02-11T12:05:17;16.34;40.49
62464;SHT31;48512;48.552;9.380;2023-02-11T12:08:02;16.77;39.56
62464;SHT31;48512;48.552;9.380;2023-02-11T12:13:48;16.97;38.42
62464;SHT31;48512;48.552;9.380;2023-02-11T12:16:42;17.25;38.19
62464;SHT31;48512;48.552;9.380;2023-02-11T12:22:28;17.54;38.22
62464;SHT31;48512;48.552;9.380;2023-02-11T12:27:53;17.83;37.99
62464;SHT31;48512;48.552;9.380;2023-02-11T12:33:15;18.08;36.71
62464;SHT31;48512;48.552;9.380;2023-02-11T12:44:56;15.70;40.67
62464;SHT31;48512;48.552;9.380;2023-02-11T12:53:03;14.34;43.60
62464;SHT31;48512;48.552;9.380;2023-02-11T12:55:38;14.61;43.07
62464;SHT31;48512;48.552;9.380;2023-02-11T12:58:14;14.23;43.47
62464;SHT31;48512;48.552;9.380;2023-02-11T13:00:53;14.38;43.56
62464;SHT31;48512;48.552;9.380;2023-02-11T13:03:24;14.12;43.06
62464;SHT31;48512;48.552;9.380;2023-02-11T13:06:05;14.30;43.73
62464;SHT31;48512;48.552;9.380;2023-02-11T13:08:46;14.38;43.37
62464;SHT31;48512;48.552;9.380;2023-02-11T13:11:16;14.69;42.61
62464;SHT31;48512;48.552;9.380;2023-02-11T13:14:03;14.72;42.56
62464;SHT31;48512;48.552;9.380;2023-02-11T13:22:02;14.14;43.66
62464;SHT31;48512;48.552;9.380;2023-02-11T13:27:10;13.83;43.66
62464;SHT31;48512;48.552;9.380;2023-02-11T13:32:20;13.62;43.63
62464;SHT31;48512;48.552;9.380;2023-02-11T13:37:35;13.23;45.27
62464;SHT31;48512;48.552;9.380;2023-02-11T13:40:05;13.26;45.10
62464;SHT31;48512;48.552;9.380;2023-02-11T13:42:33;13.48;45.00
62464;SHT31;48512;48.552;9.380;2023-02-11T13:45:20;13.54;44.67
62464;SHT31;48512;48.552;9.380;2023-02-11T13:47:56;13.98;44.15
62464;SHT31;48512;48.552;9.380;2023-02-11T13:50:23;14.16;43.67
62464;SHT31;48512;48.552;9.380;2023-02-11T13:52:59;14.10;43.57
62464;SHT31;48512;48.552;9.380;2023-02-11T13:55:28;14.16;43.15
62464;SHT31;48512;48.552;9.380;2023-02-11T14:12:32;14.26;43.23
62464;SHT31;48512;48.552;9.380;2023-02-11T14:17:32;13.54;44.75
62464;SHT31;48512;48.552;9.380;2023-02-11T14:20:00;13.51;44.97
62464;SHT31;48512;48.552;9.380;2023-02-11T14:22:29;13.37;45.18
62464;SHT31;48512;48.552;9.380;2023-02-11T14:25:04;12.93;46.10
62464;SHT31;48512;48.552;9.380;2023-02-11T14:27:38;12.70;46.88
62464;SHT31;48512;48.552;9.380;2023-02-11T14:30:25;12.90;46.32
62464;SHT31;48512;48.552;9.380;2023-02-11T14:36:00;12.63;47.65
62464;SHT31;48512;48.552;9.380;2023-02-11T14:43:46;13.89;45.49
62464;SHT31;48512;48.552;9.380;2023-02-11T14:46:15;14.20;44.50
62464;SHT31;48512;48.552;9.380;2023-02-11T14:48:45;14.51;44.20
62464;SHT31;48512;48.552;9.380;2023-02-11T14:51:18;14.96;42.90
62464;SHT31;48512;48.552;9.380;2023-02-11T14:53:52;14.65;42.96
62464;SHT31;48512;48.552;9.380;2023-02-11T14:56:27;14.64;43.03
62464;SHT31;48512;48.552;9.380;2023-02-11T14:58:55;14.45;43.63
62464;SHT31;48512;48.552;9.380;2023-02-11T15:01:31;14.98;42.76
62464;SHT31;48512;48.552;9.380;2023-02-11T15:04:00;15.10;42.56
62464;SHT31;48512;48.552;9.380;2023-02-11T15:06:36;14.14;43.66
62464;SHT31;48512;48.552;9.380;2023-02-11T15:09:13;13.71;44.96
62464;SHT31;48512;48.552;9.380;2023-02-11T15:11:42;14.52;43.85
62464;SHT31;48512;48.552;9.380;2023-02-11T15:14:17;14.42;43.82
62464;SHT31;48512;48.552;9.380;2023-02-11T15:16:45;14.48;44.08
62464;SHT31;48512;48.552;9.380;2023-02-11T15:19:24;14.65;43.79
62464;SHT31;48512;48.552;9.380;2023-02-11T15:21:52;14.58;43.89
62464;SHT31;48512;48.552;9.380;2023-02-11T15:24:29;14.71;43.54
62464;SHT31;48512;48.552;9.380;2023-02-11T15:27:12;14.71;43.53
62464;SHT31;48512;48.552;9.380;2023-02-11T15:29:45;14.44;43.94
62464;SHT31;48512;48.552;9.380;2023-02-11T15:32:15;14.13;44.01
62464;SHT31;48512;48.552;9.380;2023-02-11T15:34:42;13.37;45.09
62464;SHT31;48512;48.552;9.380;2023-02-11T15:37:13;13.06;46.13
62464;SHT31;48512;48.552;9.380;2023-02-11T15:39:43;12.65;46.81
62464;SHT31;48512;48.552;9.380;2023-02-11T15:42:28;12.32;47.85
62464;SHT31;48512;48.552;9.380;2023-02-11T15:45:10;12.28;48.01
62464;SHT31;48512;48.552;9.380;2023-02-11T15:47:40;12.01;48.70
62464;SHT31;48512;48.552;9.380;2023-02-11T15:50:17;11.93;49.07
62464;SHT31;48512;48.552;9.380;2023-02-11T15:52:45;11.84;49.32
62464;SHT31;48512;48.552;9.380;2023-02-11T15:55:13;11.45;50.53
62464;SHT31;48512;48.552;9.380;2023-02-11T15:57:45;11.49;50.50
62464;SHT31;48512;48.552;9.380;2023-02-11T16:00:17;11.46;50.92
62464;SHT31;48512;48.552;9.380;2023-02-11T16:02:46;11.34;51.31
62464;SHT31;48512;48.552;9.380;2023-02-11T16:05:34;11.35;51.68
62464;SHT31;48512;48.552;9.380;2023-02-11T16:08:00;11.10;52.38
62464;SHT31;48512;48.552;9.380;2023-02-11T16:10:36;10.83;53.20
62464;SHT31;48512;48.552;9.380;2023-02-11T16:18:26;10.79;53.66
62464;SHT31;48512;48.552;9.380;2023-02-11T16:20:53;10.53;53.93
62464;SHT31;48512;48.552;9.380;2023-02-11T16:23:25;10.26;54.50
62464;SHT31;48512;48.552;9.380;2023-02-11T16:25:58;9.64;55.97
62464;SHT31;48512;48.552;9.380;2023-02-11T16:28:25;9.32;56.96
62464;SHT31;48512;48.552;9.380;2023-02-11T16:30:52;8.88;58.17
62464;SHT31;48512;48.552;9.380;2023-02-11T16:33:18;8.81;58.46
62464;SHT31;48512;48.552;9.380;2023-02-11T16:35:44;8.74;58.58
62464;SHT31;48512;48.552;9.380;2023-02-11T16:38:12;8.61;58.79
62464;SHT31;48512;48.552;9.380;2023-02-11T16:40:37;8.44;59.37
62464;SHT31;48512;48.552;9.380;2023-02-11T16:43:03;8.63;61.08
62464;SHT31;48512;48.552;9.380;2023-02-11T16:45:28;8.34;59.92
62464;SHT31;48512;48.552;9.380;2023-02-11T16:47:54;9.54;64.84
62464;SHT31;48512;48.552;9.380;2023-02-11T16:50:21;9.73;59.19
62464;SHT31;48512;48.552;9.380;2023-02-11T16:52:48;9.23;57.38
62464;SHT31;48512;48.552;9.380;2023-02-11T16:55:13;8.65;58.54
62464;SHT31;48512;48.552;9.380;2023-02-11T16:57:39;8.17;59.70
62464;SHT31;48512;48.552;9.380;2023-02-11T17:00:05;7.61;60.91
62464;SHT31;48512;48.552;9.380;2023-02-11T17:02:36;7.34;61.94
62464;SHT31;48512;48.552;9.380;2023-02-11T17:05:04;7.00;62.77
62464;SHT31;48512;48.552;9.380;2023-02-11T17:07:32;6.88;63.10
62464;SHT31;48512;48.552;9.380;2023-02-11T17:09:58;6.54;64.04
62464;SHT31;48512;48.552;9.380;2023-02-11T17:12:24;6.38;64.50
62464;SHT31;48512;48.552;9.380;2023-02-11T17:14:52;6.34;64.90
62464;SHT31;48512;48.552;9.380;2023-02-11T17:17:18;6.23;65.07
62464;SHT31;48512;48.552;9.380;2023-02-11T17:19:46;6.20;65.34
62464;SHT31;48512;48.552;9.380;2023-02-11T17:22:14;6.19;65.29
62464;SHT31;48512;48.552;9.380;2023-02-11T17:24:42;6.10;65.62
62464;SHT31;48512;48.552;9.380;2023-02-11T17:27:10;5.95;66.03
62464;SHT31;48512;48.552;9.380;2023-02-11T17:29:37;5.96;66.09
62464;SHT31;48512;48.552;9.380;2023-02-11T17:32:03;5.81;66.61
62464;SHT31;48512;48.552;9.380;2023-02-11T17:34:28;5.51;67.15
62464;SHT31;48512;48.552;9.380;2023-02-11T17:36:57;5.40;67.95
62464;SHT31;48512;48.552;9.380;2023-02-11T17:39:24;5.37;68.42
62464;SHT31;48512;48.552;9.380;2023-02-11T17:41:50;5.15;69.19
62464;SHT31;48512;48.552;9.380;2023-02-11T17:44:15;4.89;70.26
62464;SHT31;48512;48.552;9.380;2023-02-11T17:46:41;4.96;70.31
62464;SHT31;48512;48.552;9.380;2023-02-11T17:49:10;4.82;70.95
62464;SHT31;48512;48.552;9.380;2023-02-11T17:51:38;4.60;71.90
62464;SHT31;48512;48.552;9.380;2023-02-11T17:54:06;4.68;72.09
62464;SHT31;48512;48.552;9.380;2023-02-11T17:56:33;4.67;72.48
62464;SHT31;48512;48.552;9.380;2023-02-11T17:58:58;4.67;72.63
62464;SHT31;48512;48.552;9.380;2023-02-11T18:01:27;4.72;72.76
62464;SHT31;48512;48.552;9.380;2023-02-11T18:03:52;4.71;72.81
62464;SHT31;48512;48.552;9.380;2023-02-11T18:06:20;4.71;72.97
62464;SHT31;48512;48.552;9.380;2023-02-11T18:08:46;4.69;73.23
62464;SHT31;48512;48.552;9.380;2023-02-11T18:11:12;4.79;73.12
62464;SHT31;48512;48.552;9.380;2023-02-11T18:13:41;4.83;73.20
62464;SHT31;48512;48.552;9.380;2023-02-11T18:16:07;4.97;73.05
62464;SHT31;48512;48.552;9.380;2023-02-11T18:18:33;5.00;72.88
62464;SHT31;48512;48.552;9.380;2023-02-11T18:21:00;5.07;73.00
62464;SHT31;48512;48.552;9.380;2023-02-11T18:23:28;5.07;73.23